Gaithersburg, MD

11:14 PM EDT on August 01, 2015 (GMT -0400)
Muddy Branch Park | | Change Station
CLOSE
Current Station
Personal Weather Station
Location: Gaithersburg, MD
Elevation: 394 ft
Nearby Weather Stations

Elev 394 ft 39.12 °N, 77.21 °W | Updated 14 minutes ago

Clear
Clear
71.9 °F
Feels Like 74 °F
N
0.0
Wind Variable Wind from NW
Gusts 0.0 mph

Today
High -- | Low -- °F
--% Chance of Precip.
Yesterday
High -- | Low -- °F
Precip. -- in
6:08 AM 8:20 PM
Waning Gibbous, 96% visible
Pressure 29.95 in
Visibility 10.0 miles
Clouds Clear
Heat Index 74 °F
Dew Point 62 °F
Humidity 72%
Rainfall 0.00 in
Snow Depth Not available.
UV 0 out of 12
Pollen 6.80 out of 12
Air Quality Not available.
Flu Activity Not available.
METAR KGAI 020255Z AUTO 00000KT 10SM CLR 21/14 A2995 RMK AO1 52017

More Conditions Fewer Conditions

Pressure 29.95 in
Visibility 10.0 miles
Clouds Clear
Heat Index 74 °F
Dew Point 62 °F
Humidity 72%
Rainfall 0.00 in
Snow Depth Not available.
UV 0 out of 12
Pollen 6.80 out of 12
Air Quality Not available.
Flu Activity Not available.
METAR KGAI 020255Z AUTO 00000KT 10SM CLR 21/14 A2995 RMK AO1 52017

More Conditions Fewer Conditions

10-Day Weather Forecast

×

Almanac

Astronomy

Aug. 01, 2015 Rise Set
Actual Time
Civil Twilight
Nautical Twilight
Astronomical Twilight
Moon
Length of Visible Light
Length of Day
Tomorrow will be .
, % of the Moon is Illuminated

Today's Extremes

State Highs State Lows

Community

WunderPhotos

Upload Photos

1,843,152 photos uploaded!

WunderBlogs® & News

Nearby

Air Quality

  Air Quality AQ Index Pollutant
Not available.

Snow Depth

Station Depth Elevation

Earthquake Activity

City Distance Mag. Time & Date
Minimum magnitude displayed is 2.5.

Coastal Water Temperatures

Place Temperature

Stations

Nearby Weather Stations

Station Location Temp. Windchill Dew Point Humidity Wind Precip. Elev Updated Type